Grand Forks AFB, ND (58204)

4:22 PM CDT on July 26, 2017 (GMT -0500)
UND Oakville Prairie | | Change Station

Elev 873 ft 47.89 °N, 97.32 °W | Updated 28 minutes ago

Scattered Clouds
Scattered Clouds
67.4 °F
Feels Like 67.4 °F
N
6.8
Wind Variable Wind from NNW
Gusts 14.6 mph

Today
High -- | Low -- °F
--% Chance of Precip.
Yesterday
High -- | Low -- °F
Precip. -- in
Pressure 30.08 in
Visibility 10.0 miles
Clouds Scattered Clouds 4500 ft
Dew Point 63 °F
Humidity 56%
Rainfall Not available.
Snow Depth Not available.
5:58 AM 9:12 PM
Waxing Crescent, 15% visible
METAR KRDR 262056Z AUTO 01013G17KT 10SM SCT045 27/15 A3007 RMK AO2 SLP185 T02720152 57004 $
Pressure 30.08 in
Visibility 10.0 miles
Clouds Scattered Clouds 4500 ft
Dew Point 63 °F
Humidity 56%
Rainfall Not available.
Snow Depth Not available.
5:58 AM 9:12 PM
Waxing Crescent, 15% visible
METAR KRDR 262056Z AUTO 01013G17KT 10SM SCT045 27/15 A3007 RMK AO2 SLP185 T02720152 57004 $

Get Severe Weather Alerts

Thanks for signing up!

Be on the lookout for a verification email in your inbox.

You'll start receiving the daily forecast at 6 AM.

×

10-Day Weather Forecast

Almanac

Astronomy

Jul. 26, 2017 Rise Set
Actual Time
Civil Twilight
Nautical Twilight
Astronomical Twilight
Moon
Length of Visible Light
Length of Day
Tomorrow will be .
, % of the Moon is Illuminated

Today's Extremes

State Highs State Lows

Community

WunderPhotos

Category 6

Welcome to Category 6. This is the collective home for Weather Underground's featured writeups by Dr. Jeff Masters (right), Bob Henson (left), Chris Burt, and other regular contributors.

Nearby

Air Quality

  Air Quality AQ Index Pollutant
Not available.

Snow Depth

Station Depth Elevation

Earthquake Activity

City Distance Mag. Time & Date
Minimum magnitude displayed is 2.5.

Coastal Water Temperatures

Place Temperature

Stations

Nearby Weather Stations

Station Location Temp. Windchill Dew Point Humidity Wind Precip. Elev Updated Type
                   

Watches & Warnings

There are currently no watches in effect.